sensor_id;sensor_type;location;lat;lon;timestamp;pressure;altitude;pressure_sealevel;temperature;humidity
79372;BME280;68914;51.262;6.802;2023-05-19T00:00:22;102249.75;;;13.28;53.92
79372;BME280;68914;51.262;6.802;2023-05-19T00:01:24;102241.59;;;13.30;54.15
79372;BME280;68914;51.262;6.802;2023-05-19T00:02:25;102247.13;;;13.20;54.22
79372;BME280;68914;51.262;6.802;2023-05-19T00:03:26;102243.56;;;13.13;54.43
79372;BME280;68914;51.262;6.802;2023-05-19T00:04:27;102244.22;;;13.15;54.13
79372;BME280;68914;51.262;6.802;2023-05-19T00:05:28;102246.19;;;13.13;54.32
79372;BME280;68914;51.262;6.802;2023-05-19T00:06:31;102246.19;;;13.13;54.68
79372;BME280;68914;51.262;6.802;2023-05-19T00:07:32;102249.84;;;13.12;54.52
79372;BME280;68914;51.262;6.802;2023-05-19T00:08:36;102247.91;;;13.06;55.21
79372;BME280;68914;51.262;6.802;2023-05-19T00:09:37;102242.53;;;12.99;54.67
79372;BME280;68914;51.262;6.802;2023-05-19T00:10:38;102248.16;;;12.96;54.62
79372;BME280;68914;51.262;6.802;2023-05-19T00:11:39;102252.50;;;13.12;54.40
79372;BME280;68914;51.262;6.802;2023-05-19T00:12:40;102249.84;;;13.12;54.26
79372;BME280;68914;51.262;6.802;2023-05-19T00:13:42;102241.25;;;13.10;54.61
79372;BME280;68914;51.262;6.802;2023-05-19T00:14:45;102246.75;;;13.09;54.84
79372;BME280;68914;51.262;6.802;2023-05-19T00:15:45;102248.72;;;12.92;54.80
79372;BME280;68914;51.262;6.802;2023-05-19T00:16:46;102247.28;;;13.04;54.19
79372;BME280;68914;51.262;6.802;2023-05-19T00:17:48;102238.75;;;12.94;54.88
79372;BME280;68914;51.262;6.802;2023-05-19T00:18:48;102246.06;;;12.92;55.37
79372;BME280;68914;51.262;6.802;2023-05-19T00:19:49;102245.81;;;12.78;56.07
79372;BME280;68914;51.262;6.802;2023-05-19T00:20:50;102240.56;;;12.93;55.57
79372;BME280;68914;51.262;6.802;2023-05-19T00:21:51;102245.59;;;12.88;55.30
79372;BME280;68914;51.262;6.802;2023-05-19T00:22:52;102246.13;;;12.84;55.56
79372;BME280;68914;51.262;6.802;2023-05-19T00:23:53;102247.78;;;12.85;55.15
79372;BME280;68914;51.262;6.802;2023-05-19T00:24:53;102242.81;;;12.82;55.33
79372;BME280;68914;51.262;6.802;2023-05-19T00:25:54;102239.34;;;12.81;55.89
79372;BME280;68914;51.262;6.802;2023-05-19T00:26:55;102246.47;;;12.80;55.67
79372;BME280;68914;51.262;6.802;2023-05-19T00:27:56;102243.06;;;12.72;56.07
79372;BME280;68914;51.262;6.802;2023-05-19T00:28:58;102240.91;;;12.75;55.45
79372;BME280;68914;51.262;6.802;2023-05-19T00:29:59;102245.81;;;12.78;55.26
79372;BME280;68914;51.262;6.802;2023-05-19T00:30:59;102253.72;;;12.64;56.15
79372;BME280;68914;51.262;6.802;2023-05-19T00:32:01;102238.31;;;12.67;55.82
79372;BME280;68914;51.262;6.802;2023-05-19T00:33:02;102247.22;;;12.66;56.11
79372;BME280;68914;51.262;6.802;2023-05-19T00:34:03;102240.97;;;12.67;55.93
79372;BME280;68914;51.262;6.802;2023-05-19T00:35:04;102241.66;;;12.61;56.56
79372;BME280;68914;51.262;6.802;2023-05-19T00:36:05;102241.47;;;12.63;56.26
79372;BME280;68914;51.262;6.802;2023-05-19T00:37:06;102244.56;;;12.66;56.24
79372;BME280;68914;51.262;6.802;2023-05-19T00:38:06;102242.72;;;12.52;56.78
79372;BME280;68914;51.262;6.802;2023-05-19T00:39:07;102241.66;;;12.61;56.41
79372;BME280;68914;51.262;6.802;2023-05-19T00:40:09;102237.03;;;12.55;56.56
79372;BME280;68914;51.262;6.802;2023-05-19T00:41:10;102243.69;;;12.51;56.85
79372;BME280;68914;51.262;6.802;2023-05-19T00:42:11;102241.63;;;12.38;57.03
79372;BME280;68914;51.262;6.802;2023-05-19T00:43:12;102239.63;;;12.40;57.46
79372;BME280;68914;51.262;6.802;2023-05-19T00:44:12;102241.78;;;12.68;56.18
79372;BME280;68914;51.262;6.802;2023-05-19T00:45:13;102239.00;;;12.61;56.83
79372;BME280;68914;51.262;6.802;2023-05-19T00:46:14;102243.53;;;12.75;56.10
79372;BME280;68914;51.262;6.802;2023-05-19T00:47:14;102239.13;;;12.68;55.93
79372;BME280;68914;51.262;6.802;2023-05-19T00:48:15;102230.38;;;12.67;56.23
79372;BME280;68914;51.262;6.802;2023-05-19T00:49:16;102244.41;;;12.45;57.06
79372;BME280;68914;51.262;6.802;2023-05-19T00:50:17;102245.28;;;12.37;57.34
79372;BME280;68914;51.262;6.802;2023-05-19T00:51:18;102239.50;;;12.34;57.52
79372;BME280;68914;51.262;6.802;2023-05-19T00:52:19;102240.03;;;12.29;57.49
79372;BME280;68914;51.262;6.802;2023-05-19T00:53:22;102248.47;;;12.24;57.58
79372;BME280;68914;51.262;6.802;2023-05-19T00:54:24;102241.72;;;12.22;57.75
79372;BME280;68914;51.262;6.802;2023-05-19T00:55:32;102243.00;;;12.26;57.47
79372;BME280;68914;51.262;6.802;2023-05-19T00:56:34;102241.53;;;12.23;57.22
79372;BME280;68914;51.262;6.802;2023-05-19T00:57:35;102243.97;;;12.33;57.49
79372;BME280;68914;51.262;6.802;2023-05-19T00:58:36;102237.72;;;12.26;57.49
79372;BME280;68914;51.262;6.802;2023-05-19T00:59:38;102241.53;;;12.23;57.73
79372;BME280;68914;51.262;6.802;2023-05-19T01:00:39;102238.81;;;12.09;57.95
79372;BME280;68914;51.262;6.802;2023-05-19T01:01:40;102238.06;;;12.23;58.00
79372;BME280;68914;51.262;6.802;2023-05-19T01:02:41;102237.91;;;12.24;57.65
79372;BME280;68914;51.262;6.802;2023-05-19T01:03:42;102241.31;;;12.02;57.91
79372;BME280;68914;51.262;6.802;2023-05-19T01:04:43;102239.47;;;12.02;58.36
79372;BME280;68914;51.262;6.802;2023-05-19T01:05:44;102230.59;;;11.95;58.35
79372;BME280;68914;51.262;6.802;2023-05-19T01:06:48;102241.81;;;11.97;58.14
79372;BME280;68914;51.262;6.802;2023-05-19T01:07:54;102242.53;;;11.83;59.10
79372;BME280;68914;51.262;6.802;2023-05-19T01:08:55;102245.47;;;11.96;58.51
79372;BME280;68914;51.262;6.802;2023-05-19T01:09:56;102236.06;;;11.94;58.55
79372;BME280;68914;51.262;6.802;2023-05-19T01:10:57;102240.97;;;12.05;58.56
79372;BME280;68914;51.262;6.802;2023-05-19T01:11:59;102236.50;;;12.05;58.44
79372;BME280;68914;51.262;6.802;2023-05-19T01:13:04;102238.63;;;12.10;58.12
79372;BME280;68914;51.262;6.802;2023-05-19T01:14:06;102241.91;;;12.20;57.95
79372;BME280;68914;51.262;6.802;2023-05-19T01:15:07;102235.19;;;12.01;57.93
79372;BME280;68914;51.262;6.802;2023-05-19T01:16:34;102237.31;;;12.06;58.48
79372;BME280;68914;51.262;6.802;2023-05-19T01:18:17;102228.38;;;12.07;58.61
79372;BME280;68914;51.262;6.802;2023-05-19T01:20:35;102240.38;;;11.78;59.22
79372;BME280;68914;51.262;6.802;2023-05-19T01:25:19;102236.16;;;11.53;60.52
79372;BME280;68914;51.262;6.802;2023-05-19T01:31:24;102232.47;;;11.70;59.74
79372;BME280;68914;51.262;6.802;2023-05-19T01:32:25;102233.78;;;11.74;59.65
79372;BME280;68914;51.262;6.802;2023-05-19T01:33:28;102233.50;;;11.61;60.15
79372;BME280;68914;51.262;6.802;2023-05-19T01:34:30;102233.00;;;11.66;60.35
79372;BME280;68914;51.262;6.802;2023-05-19T01:35:34;102225.22;;;11.56;60.33
79372;BME280;68914;51.262;6.802;2023-05-19T01:36:36;102230.91;;;11.45;60.75
79372;BME280;68914;51.262;6.802;2023-05-19T01:37:39;102230.94;;;11.28;61.22
79372;BME280;68914;51.262;6.802;2023-05-19T01:38:45;102235.34;;;11.36;60.97
79372;BME280;68914;51.262;6.802;2023-05-19T01:39:47;102228.09;;;11.38;61.57
79372;BME280;68914;51.262;6.802;2023-05-19T01:40:48;102232.53;;;11.54;60.41
79372;BME280;68914;51.262;6.802;2023-05-19T01:41:52;102228.09;;;11.38;61.34
79372;BME280;68914;51.262;6.802;2023-05-19T01:42:57;102230.38;;;11.49;60.91
79372;BME280;68914;51.262;6.802;2023-05-19T01:43:59;102234.16;;;11.55;60.17
79372;BME280;68914;51.262;6.802;2023-05-19T01:45:00;102227.25;;;11.54;60.82
79372;BME280;68914;51.262;6.802;2023-05-19T01:46:01;102235.66;;;11.57;60.60
79372;BME280;68914;51.262;6.802;2023-05-19T01:47:02;102236.31;;;11.51;60.67
79372;BME280;68914;51.262;6.802;2023-05-19T01:48:04;102239.97;;;11.42;61.03
79372;BME280;68914;51.262;6.802;2023-05-19T01:49:05;102232.06;;;11.42;60.93
79372;BME280;68914;51.262;6.802;2023-05-19T01:50:07;102238.19;;;11.26;61.61
79372;BME280;68914;51.262;6.802;2023-05-19T01:51:08;102238.66;;;11.46;60.67
79372;BME280;68914;51.262;6.802;2023-05-19T01:52:08;102238.50;;;11.23;62.01
79372;BME280;68914;51.262;6.802;2023-05-19T01:53:09;102237.81;;;11.46;60.76
79372;BME280;68914;51.262;6.802;2023-05-19T01:54:10;102246.75;;;11.45;60.87
79372;BME280;68914;51.262;6.802;2023-05-19T01:55:11;102242.63;;;11.34;60.97
79372;BME280;68914;51.262;6.802;2023-05-19T01:56:15;102240.63;;;11.36;60.84
79372;BME280;68914;51.262;6.802;2023-05-19T01:58:46;102237.16;;;11.36;61.28
79372;BME280;68914;51.262;6.802;2023-05-19T02:01:19;102243.63;;;11.33;60.83
79372;BME280;68914;51.262;6.802;2023-05-19T02:04:57;102246.72;;;11.53;60.90
79372;BME280;68914;51.262;6.802;2023-05-19T02:09:01;102244.59;;;11.48;60.84
79372;BME280;68914;51.262;6.802;2023-05-19T02:10:09;102247.88;;;11.50;60.51
79372;BME280;68914;51.262;6.802;2023-05-19T02:11:22;102248.72;;;11.43;60.70
79372;BME280;68914;51.262;6.802;2023-05-19T02:12:27;102249.53;;;11.51;60.80
79372;BME280;68914;51.262;6.802;2023-05-19T02:13:35;102250.69;;;11.49;60.93
79372;BME280;68914;51.262;6.802;2023-05-19T02:14:56;102239.50;;;11.14;62.14
79372;BME280;68914;51.262;6.802;2023-05-19T02:16:03;102245.06;;;11.44;61.03
79372;BME280;68914;51.262;6.802;2023-05-19T02:17:04;102251.03;;;11.46;60.39
79372;BME280;68914;51.262;6.802;2023-05-19T02:18:08;102246.09;;;11.26;61.14
79372;BME280;68914;51.262;6.802;2023-05-19T02:19:24;102243.72;;;11.56;60.74
79372;BME280;68914;51.262;6.802;2023-05-19T02:20:25;102242.66;;;11.18;61.72
79372;BME280;68914;51.262;6.802;2023-05-19T02:21:26;102241.97;;;11.07;61.62
79372;BME280;68914;51.262;6.802;2023-05-19T02:22:29;102239.34;;;11.07;61.94
79372;BME280;68914;51.262;6.802;2023-05-19T02:23:30;102238.84;;;11.12;62.15
79372;BME280;68914;51.262;6.802;2023-05-19T02:24:31;102239.34;;;11.07;62.17
79372;BME280;68914;51.262;6.802;2023-05-19T02:25:32;102237.03;;;11.04;62.43
79372;BME280;68914;51.262;6.802;2023-05-19T02:26:33;102246.44;;;10.91;62.68
79372;BME280;68914;51.262;6.802;2023-05-19T02:27:35;102236.06;;;10.81;62.93
79372;BME280;68914;51.262;6.802;2023-05-19T02:28:36;102242.97;;;10.98;62.53
79372;BME280;68914;51.262;6.802;2023-05-19T02:29:37;102244.13;;;10.79;62.90
79372;BME280;68914;51.262;6.802;2023-05-19T02:30:39;102241.16;;;10.82;62.98
79372;BME280;68914;51.262;6.802;2023-05-19T02:31:40;102235.88;;;10.74;63.44
79372;BME280;68914;51.262;6.802;2023-05-19T02:32:40;102245.13;;;10.78;63.03
79372;BME280;68914;51.262;6.802;2023-05-19T02:33:41;102242.31;;;10.80;62.52
79372;BME280;68914;51.262;6.802;2023-05-19T02:34:42;102239.16;;;10.76;63.30
79372;BME280;68914;51.262;6.802;2023-05-19T02:35:45;102232.09;;;10.85;62.95
79372;BME280;68914;51.262;6.802;2023-05-19T02:36:45;102235.22;;;10.80;63.35
79372;BME280;68914;51.262;6.802;2023-05-19T02:37:49;102240.50;;;10.80;63.01
79372;BME280;68914;51.262;6.802;2023-05-19T02:38:49;102233.88;;;10.84;62.75
79372;BME280;68914;51.262;6.802;2023-05-19T02:39:50;102233.38;;;10.65;63.83
79372;BME280;68914;51.262;6.802;2023-05-19T02:40:51;102242.78;;;10.59;64.36
79372;BME280;68914;51.262;6.802;2023-05-19T02:41:55;102242.94;;;10.57;63.84
79372;BME280;68914;51.262;6.802;2023-05-19T02:42:56;102235.88;;;10.58;63.79
79372;BME280;68914;51.262;6.802;2023-05-19T02:43:56;102231.25;;;10.68;63.68
79372;BME280;68914;51.262;6.802;2023-05-19T02:44:58;102225.47;;;10.65;63.58
79372;BME280;68914;51.262;6.802;2023-05-19T02:45:59;102228.28;;;10.79;62.95
79372;BME280;68914;51.262;6.802;2023-05-19T02:47:00;102235.56;;;10.69;63.34
79372;BME280;68914;51.262;6.802;2023-05-19T02:48:01;102225.50;;;10.81;63.69
79372;BME280;68914;51.262;6.802;2023-05-19T02:49:01;102229.63;;;10.83;63.09
79372;BME280;68914;51.262;6.802;2023-05-19T02:50:03;102222.00;;;10.72;63.52
79372;BME280;68914;51.262;6.802;2023-05-19T02:51:05;102224.81;;;10.63;63.67
79372;BME280;68914;51.262;6.802;2023-05-19T02:52:05;102226.31;;;10.65;63.55
79372;BME280;68914;51.262;6.802;2023-05-19T02:53:06;102223.50;;;10.75;63.22
79372;BME280;68914;51.262;6.802;2023-05-19T02:54:07;102214.09;;;10.72;63.38
79372;BME280;68914;51.262;6.802;2023-05-19T02:55:07;102210.97;;;10.77;63.33
79372;BME280;68914;51.262;6.802;2023-05-19T02:56:08;102214.78;;;10.91;63.00
79372;BME280;68914;51.262;6.802;2023-05-19T02:57:09;102212.97;;;10.83;62.80
79372;BME280;68914;51.262;6.802;2023-05-19T02:58:10;102218.88;;;10.77;62.81
79372;BME280;68914;51.262;6.802;2023-05-19T02:59:11;102214.91;;;10.56;64.17
79372;BME280;68914;51.262;6.802;2023-05-19T03:00:12;102216.59;;;10.66;64.06
79372;BME280;68914;51.262;6.802;2023-05-19T03:01:12;102212.44;;;10.63;63.96
79372;BME280;68914;51.262;6.802;2023-05-19T03:02:13;102217.91;;;10.53;63.84
79372;BME280;68914;51.262;6.802;2023-05-19T03:03:14;102218.03;;;10.60;64.09
79372;BME280;68914;51.262;6.802;2023-05-19T03:04:15;102219.69;;;10.53;64.14
79372;BME280;68914;51.262;6.802;2023-05-19T03:05:15;102220.66;;;10.44;64.97
79372;BME280;68914;51.262;6.802;2023-05-19T03:06:16;102217.91;;;10.70;63.64
79372;BME280;68914;51.262;6.802;2023-05-19T03:07:17;102222.69;;;10.66;63.73
79372;BME280;68914;51.262;6.802;2023-05-19T03:08:18;102222.31;;;10.53;64.16
79372;BME280;68914;51.262;6.802;2023-05-19T03:09:19;102218.72;;;10.54;63.88
79372;BME280;68914;51.262;6.802;2023-05-19T03:10:20;102219.88;;;10.68;63.79
79372;BME280;68914;51.262;6.802;2023-05-19T03:11:20;102218.56;;;10.72;63.43
79372;BME280;68914;51.262;6.802;2023-05-19T03:12:22;102220.19;;;10.65;63.09
79372;BME280;68914;51.262;6.802;2023-05-19T03:13:23;102227.97;;;10.66;63.22
79372;BME280;68914;51.262;6.802;2023-05-19T03:14:24;102215.41;;;10.60;63.60
79372;BME280;68914;51.262;6.802;2023-05-19T03:15:25;102231.72;;;10.47;64.23
79372;BME280;68914;51.262;6.802;2023-05-19T03:16:26;102227.78;;;10.59;63.69
79372;BME280;68914;51.262;6.802;2023-05-19T03:17:27;102231.59;;;10.65;64.17
79372;BME280;68914;51.262;6.802;2023-05-19T03:18:33;102233.38;;;10.56;64.27
79372;BME280;68914;51.262;6.802;2023-05-19T03:19:34;102223.69;;;10.65;64.22
79372;BME280;68914;51.262;6.802;2023-05-19T03:20:34;102224.66;;;10.72;63.63
79372;BME280;68914;51.262;6.802;2023-05-19T03:21:35;102223.84;;;10.88;63.17
79372;BME280;68914;51.262;6.802;2023-05-19T03:22:36;102224.50;;;10.74;62.88
79372;BME280;68914;51.262;6.802;2023-05-19T03:23:36;102223.00;;;10.71;63.15
79372;BME280;68914;51.262;6.802;2023-05-19T03:24:37;102228.59;;;10.52;64.38
79372;BME280;68914;51.262;6.802;2023-05-19T03:25:38;102228.59;;;10.60;63.73
79372;BME280;68914;51.262;6.802;2023-05-19T03:26:39;102229.09;;;10.72;63.30
79372;BME280;68914;51.262;6.802;2023-05-19T03:27:41;102224.34;;;10.83;62.60
79372;BME280;68914;51.262;6.802;2023-05-19T03:28:41;102227.78;;;10.76;63.04
79372;BME280;68914;51.262;6.802;2023-05-19T03:29:42;102223.00;;;10.63;63.68
79372;BME280;68914;51.262;6.802;2023-05-19T03:30:43;102223.84;;;10.72;63.21
79372;BME280;68914;51.262;6.802;2023-05-19T03:31:47;102218.06;;;10.76;63.57
79372;BME280;68914;51.262;6.802;2023-05-19T03:32:50;102223.69;;;10.81;62.92
79372;BME280;68914;51.262;6.802;2023-05-19T03:33:51;102223.50;;;10.75;62.97
79372;BME280;68914;51.262;6.802;2023-05-19T03:34:53;102219.06;;;10.83;62.38
79372;BME280;68914;51.262;6.802;2023-05-19T03:35:55;102223.19;;;10.70;62.82
79372;BME280;68914;51.262;6.802;2023-05-19T03:36:56;102217.25;;;10.84;62.96
79372;BME280;68914;51.262;6.802;2023-05-19T03:37:57;102213.94;;;10.66;63.29
79372;BME280;68914;51.262;6.802;2023-05-19T03:38:57;102213.47;;;10.70;63.67
79372;BME280;68914;51.262;6.802;2023-05-19T03:39:59;102216.09;;;10.78;63.49
79372;BME280;68914;51.262;6.802;2023-05-19T03:40:59;102225.66;;;10.88;63.01
79372;BME280;68914;51.262;6.802;2023-05-19T03:42:00;102216.75;;;10.89;62.96
79372;BME280;68914;51.262;6.802;2023-05-19T03:43:01;102211.97;;;10.76;63.56
79372;BME280;68914;51.262;6.802;2023-05-19T03:44:02;102218.88;;;10.77;62.92
79372;BME280;68914;51.262;6.802;2023-05-19T03:45:03;102211.13;;;10.92;63.08
79372;BME280;68914;51.262;6.802;2023-05-19T03:46:05;102213.97;;;10.82;63.38
79372;BME280;68914;51.262;6.802;2023-05-19T03:47:25;102215.44;;;11.01;61.83
79372;BME280;68914;51.262;6.802;2023-05-19T03:48:58;102221.53;;;11.01;62.00
79372;BME280;68914;51.262;6.802;2023-05-19T03:50:28;102221.69;;;11.16;61.88
79372;BME280;68914;51.262;6.802;2023-05-19T03:51:40;102220.88;;;10.91;61.86
79372;BME280;68914;51.262;6.802;2023-05-19T03:53:01;102220.38;;;11.04;62.53
79372;BME280;68914;51.262;6.802;2023-05-19T03:54:05;102221.03;;;11.06;61.96
79372;BME280;68914;51.262;6.802;2023-05-19T03:55:07;102227.78;;;11.00;62.32
79372;BME280;68914;51.262;6.802;2023-05-19T03:56:08;102223.38;;;11.01;62.50
79372;BME280;68914;51.262;6.802;2023-05-19T03:57:13;102228.47;;;10.86;62.52
79372;BME280;68914;51.262;6.802;2023-05-19T03:58:14;102223.69;;;11.06;61.68
79372;BME280;68914;51.262;6.802;2023-05-19T03:59:15;102219.72;;;11.10;62.06
79372;BME280;68914;51.262;6.802;2023-05-19T04:00:16;102220.72;;;11.09;62.07
79372;BME280;68914;51.262;6.802;2023-05-19T04:01:17;102224.81;;;11.20;61.80
79372;BME280;68914;51.262;6.802;2023-05-19T04:02:18;102217.72;;;11.28;61.46
79372;BME280;68914;51.262;6.802;2023-05-19T04:03:21;102223.00;;;11.28;61.92
79372;BME280;68914;51.262;6.802;2023-05-19T04:04:22;102216.88;;;11.28;60.97
79372;BME280;68914;51.262;6.802;2023-05-19T04:05:23;102222.16;;;11.20;61.14
79372;BME280;68914;51.262;6.802;2023-05-19T04:06:23;102226.63;;;11.27;61.75
79372;BME280;68914;51.262;6.802;2023-05-19T04:07:24;102217.38;;;11.31;61.57
79372;BME280;68914;51.262;6.802;2023-05-19T04:08:25;102226.00;;;11.01;62.33
79372;BME280;68914;51.262;6.802;2023-05-19T04:09:25;102219.53;;;11.20;61.81
79372;BME280;68914;51.262;6.802;2023-05-19T04:10:26;102224.31;;;11.16;62.00
79372;BME280;68914;51.262;6.802;2023-05-19T04:11:28;102220.03;;;11.15;61.79
79372;BME280;68914;51.262;6.802;2023-05-19T04:12:29;102219.03;;;11.24;61.83
79372;BME280;68914;51.262;6.802;2023-05-19T04:13:32;102218.22;;;11.07;62.11
79372;BME280;68914;51.262;6.802;2023-05-19T04:14:33;102230.91;;;11.20;62.34
79372;BME280;68914;51.262;6.802;2023-05-19T04:15:33;102221.22;;;11.13;62.58
79372;BME280;68914;51.262;6.802;2023-05-19T04:16:34;102223.34;;;11.09;62.50
79372;BME280;68914;51.262;6.802;2023-05-19T04:17:36;102222.19;;;11.12;63.01
79372;BME280;68914;51.262;6.802;2023-05-19T04:18:37;102218.72;;;11.19;62.06
79372;BME280;68914;51.262;6.802;2023-05-19T04:19:38;102222.34;;;11.18;62.17
79372;BME280;68914;51.262;6.802;2023-05-19T04:20:39;102233.25;;;11.15;62.41
79372;BME280;68914;51.262;6.802;2023-05-19T04:21:40;102229.13;;;11.21;62.18
79372;BME280;68914;51.262;6.802;2023-05-19T04:22:40;102234.56;;;11.19;62.26
79372;BME280;68914;51.262;6.802;2023-05-19T04:23:41;102226.00;;;11.17;62.71
79372;BME280;68914;51.262;6.802;2023-05-19T04:24:41;102223.00;;;11.12;62.38
79372;BME280;68914;51.262;6.802;2023-05-19T04:25:42;102229.28;;;11.19;62.87
79372;BME280;68914;51.262;6.802;2023-05-19T04:26:43;102224.81;;;11.20;62.34
79372;BME280;68914;51.262;6.802;2023-05-19T04:27:46;102221.66;;;11.24;62.30
79372;BME280;68914;51.262;6.802;2023-05-19T04:28:48;102228.75;;;11.24;62.64
79372;BME280;68914;51.262;6.802;2023-05-19T04:29:48;102222.00;;;11.38;62.31
79372;BME280;68914;51.262;6.802;2023-05-19T04:30:49;102233.22;;;11.31;62.24
79372;BME280;68914;51.262;6.802;2023-05-19T04:31:50;102232.25;;;11.32;61.48
79372;BME280;68914;51.262;6.802;2023-05-19T04:32:52;102224.31;;;11.24;62.12
79372;BME280;68914;51.262;6.802;2023-05-19T04:33:52;102224.81;;;11.28;62.27
79372;BME280;68914;51.262;6.802;2023-05-19T04:34:53;102229.09;;;11.45;61.86
79372;BME280;68914;51.262;6.802;2023-05-19T04:35:58;102231.22;;;11.42;61.92
79372;BME280;68914;51.262;6.802;2023-05-19T04:36:59;102229.09;;;11.45;61.80
79372;BME280;68914;51.262;6.802;2023-05-19T04:38:00;102222.53;;;11.25;61.52
79372;BME280;68914;51.262;6.802;2023-05-19T04:39:03;102234.75;;;11.01;63.16
79372;BME280;68914;51.262;6.802;2023-05-19T04:40:08;102226.97;;;11.32;62.44
79372;BME280;68914;51.262;6.802;2023-05-19T04:41:10;102227.13;;;11.31;62.31
79372;BME280;68914;51.262;6.802;2023-05-19T04:42:12;102222.84;;;11.14;62.44
79372;BME280;68914;51.262;6.802;2023-05-19T04:43:13;102217.56;;;11.14;62.77
79372;BME280;68914;51.262;6.802;2023-05-19T04:44:14;102224.69;;;11.13;62.53
79372;BME280;68914;51.262;6.802;2023-05-19T04:45:18;102226.97;;;11.08;62.54
79372;BME280;68914;51.262;6.802;2023-05-19T04:46:23;102223.00;;;11.20;62.36
79372;BME280;68914;51.262;6.802;2023-05-19T04:47:24;102222.84;;;11.22;62.59
79372;BME280;68914;51.262;6.802;2023-05-19T04:48:27;102234.06;;;11.16;62.75
79372;BME280;68914;51.262;6.802;2023-05-19T04:49:31;102233.72;;;11.19;62.12
79372;BME280;68914;51.262;6.802;2023-05-19T04:50:32;102227.63;;;11.18;62.59
79372;BME280;68914;51.262;6.802;2023-05-19T04:51:34;102231.41;;;11.16;62.36
79372;BME280;68914;51.262;6.802;2023-05-19T04:52:35;102237.53;;;11.32;62.13
79372;BME280;68914;51.262;6.802;2023-05-19T04:53:39;102229.13;;;11.29;61.75
79372;BME280;68914;51.262;6.802;2023-05-19T04:54:42;102239.81;;;11.27;61.81
79372;BME280;68914;51.262;6.802;2023-05-19T04:55:46;102237.84;;;11.29;61.96
79372;BME280;68914;51.262;6.802;2023-05-19T04:56:47;102239.13;;;11.50;61.04
79372;BME280;68914;51.262;6.802;2023-05-19T04:57:48;102236.16;;;11.53;61.07
79372;BME280;68914;51.262;6.802;2023-05-19T04:58:49;102237.31;;;11.50;61.17
79372;BME280;68914;51.262;6.802;2023-05-19T04:59:50;102229.22;;;11.52;60.67
79372;BME280;68914;51.262;6.802;2023-05-19T05:00:52;102230.84;;;11.69;60.15
79372;BME280;68914;51.262;6.802;2023-05-19T05:01:56;102227.88;;;11.64;60.15
79372;BME280;68914;51.262;6.802;2023-05-19T05:02:58;102230.22;;;11.51;60.38
79372;BME280;68914;51.262;6.802;2023-05-19T05:04:00;102228.03;;;11.63;60.17
79372;BME280;68914;51.262;6.802;2023-05-19T05:05:02;102231.97;;;11.67;60.55
79372;BME280;68914;51.262;6.802;2023-05-19T05:06:03;102224.38;;;11.72;59.78
79372;BME280;68914;51.262;6.802;2023-05-19T05:07:04;102217.94;;;11.66;60.17
79372;BME280;68914;51.262;6.802;2023-05-19T05:08:06;102228.25;;;11.53;60.42
79372;BME280;68914;51.262;6.802;2023-05-19T05:09:12;102223.53;;;11.71;59.82
79372;BME280;68914;51.262;6.802;2023-05-19T05:10:13;102222.34;;;11.82;60.00
79372;BME280;68914;51.262;6.802;2023-05-19T05:11:14;102228.16;;;11.77;59.95
79372;BME280;68914;51.262;6.802;2023-05-19T05:12:17;102220.47;;;12.07;58.91
79372;BME280;68914;51.262;6.802;2023-05-19T05:13:21;102220.47;;;12.07;58.67
79372;BME280;68914;51.262;6.802;2023-05-19T05:14:23;102221.28;;;12.07;59.07
79372;BME280;68914;51.262;6.802;2023-05-19T05:15:23;102229.13;;;11.93;59.58
79372;BME280;68914;51.262;6.802;2023-05-19T05:16:28;102220.41;;;12.15;58.92
79372;BME280;68914;51.262;6.802;2023-05-19T05:17:30;102231.66;;;12.17;59.04
79372;BME280;68914;51.262;6.802;2023-05-19T05:18:32;102229.34;;;12.14;58.58
79372;BME280;68914;51.262;6.802;2023-05-19T05:19:33;102223.97;;;12.30;58.60
79372;BME280;68914;51.262;6.802;2023-05-19T05:20:34;102224.16;;;12.29;58.49
79372;BME280;68914;51.262;6.802;2023-05-19T05:21:35;102226.38;;;12.17;58.61
79372;BME280;68914;51.262;6.802;2023-05-19T05:22:36;102229.34;;;12.14;58.53
79372;BME280;68914;51.262;6.802;2023-05-19T05:23:39;102238.97;;;12.07;59.07
79372;BME280;68914;51.262;6.802;2023-05-19T05:24:40;102229.94;;;12.33;58.62
79372;BME280;68914;51.262;6.802;2023-05-19T05:25:42;102231.75;;;12.32;58.46
79372;BME280;68914;51.262;6.802;2023-05-19T05:26:44;102227.63;;;12.29;58.27
79372;BME280;68914;51.262;6.802;2023-05-19T05:27:44;102228.38;;;12.38;58.25
79372;BME280;68914;51.262;6.802;2023-05-19T05:28:45;102233.06;;;12.59;57.20
79372;BME280;68914;51.262;6.802;2023-05-19T05:29:46;102227.19;;;12.49;58.17
79372;BME280;68914;51.262;6.802;2023-05-19T05:30:47;102230.47;;;12.51;58.04
79372;BME280;68914;51.262;6.802;2023-05-19T05:31:48;102229.97;;;12.55;57.84
79372;BME280;68914;51.262;6.802;2023-05-19T05:32:50;102226.25;;;12.65;57.78
79372;BME280;68914;51.262;6.802;2023-05-19T05:34:02;102231.13;;;12.53;57.63
79372;BME280;68914;51.262;6.802;2023-05-19T05:35:05;102225.13;;;12.59;57.42
79372;BME280;68914;51.262;6.802;2023-05-19T05:36:07;102218.75;;;12.45;57.90
79372;BME280;68914;51.262;6.802;2023-05-19T05:37:08;102226.84;;;12.52;57.90
79372;BME280;68914;51.262;6.802;2023-05-19T05:38:10;102222.88;;;12.71;57.50
79372;BME280;68914;51.262;6.802;2023-05-19T05:39:11;102223.69;;;12.94;56.89
79372;BME280;68914;51.262;6.802;2023-05-19T05:40:14;102223.41;;;12.89;56.90
79372;BME280;68914;51.262;6.802;2023-05-19T05:41:15;102229.03;;;12.86;56.42
79372;BME280;68914;51.262;6.802;2023-05-19T05:42:16;102231.53;;;12.88;56.74
79372;BME280;68914;51.262;6.802;2023-05-19T05:43:17;102227.34;;;12.93;56.55
79372;BME280;68914;51.262;6.802;2023-05-19T05:44:23;102226.25;;;12.88;56.63